Time;durP1;ratioP1;P1;durP2;ratioP2;P2;SDS_P1;SDS_P2;PMS_P1;PMS_P2;Temp;Humidity;BMP_temperature;BMP_pressure;BME280_temperature;BME280_humidity;BME280_pressure;Samples;Min_cycle;Max_cycle;Signal;HPM_P1;HPM_P2
2023/01/04 08:06:21;;;;;;;3.60;3.30;;;5.00;99.90;;;;;;5785157;22;20263;-75
2023/01/04 08:08:48;;;;;;;3.45;2.58;;;5.10;99.90;;;;;;5056622;28;20215;-73
2023/01/04 08:11:17;;;;;;;3.00;2.75;;;5.20;99.90;;;;;;5056906;28;20204;-74
2023/01/04 08:13:44;;;;;;;2.70;2.50;;;5.20;99.90;;;;;;5056738;28;20207;-72
2023/01/04 08:16:20;;;;;;;2.78;2.55;;;5.20;99.90;;;;;;5056225;28;20738;-72
2023/01/04 08:18:47;;;;;;;3.10;2.90;;;5.20;99.90;;;;;;5056783;28;20279;-73
2023/01/04 08:21:14;;;;;;;3.25;2.95;;;5.20;99.90;;;;;;5085610;22;20225;-78
2023/01/04 08:23:42;;;;;;;3.63;2.55;;;5.30;99.90;;;;;;5072102;28;20211;-78
2023/01/04 08:26:11;;;;;;;2.28;2.08;;;5.30;99.90;;;;;;5070935;28;20232;-78
2023/01/04 08:28:38;;;;;;;2.30;2.20;;;5.30;99.90;;;;;;5062901;28;20196;-79
2023/01/04 08:31:07;;;;;;;3.10;2.55;;;5.30;99.90;;;;;;5061466;28;20228;-79
2023/01/04 08:33:34;;;;;;;2.47;2.38;;;5.30;99.90;;;;;;5059902;28;20200;-79
2023/01/04 08:36:09;;;;;;;2.30;2.20;;;5.40;99.90;;;;;;5060606;28;20212;-77
2023/01/04 08:38:36;;;;;;;6.10;2.42;;;5.40;99.90;;;;;;5058793;28;20200;-78
2023/01/04 08:41:04;;;;;;;2.20;2.10;;;5.30;99.90;;;;;;5056317;28;20232;-77
2023/01/04 08:43:31;;;;;;;2.45;2.25;;;5.40;99.90;;;;;;5057266;28;20200;-77
2023/01/04 08:45:58;;;;;;;5.05;2.80;;;5.40;99.90;;;;;;5057654;28;20200;-77
2023/01/04 08:48:24;;;;;;;2.78;2.53;;;5.40;99.90;;;;;;5057031;28;20691;-77
2023/01/04 08:50:51;;;;;;;2.10;2.00;;;5.40;99.90;;;;;;5057384;28;20228;-77
2023/01/04 08:53:18;;;;;;;2.10;2.00;;;5.40;99.90;;;;;;5057453;28;20573;-77
2023/01/04 08:55:49;;;;;;;2.00;1.95;;;5.40;99.90;;;;;;5058033;28;20200;-77
2023/01/04 08:58:18;;;;;;;3.10;2.35;;;5.40;99.90;;;;;;5058566;28;20212;-77
2023/01/04 09:00:44;;;;;;;4.00;2.25;;;5.40;99.90;;;;;;5057902;28;20228;-77
2023/01/04 09:03:12;;;;;;;1.90;1.80;;;5.50;99.90;;;;;;5056662;28;20204;-78
2023/01/04 09:05:39;;;;;;;2.63;2.33;;;5.50;99.90;;;;;;5057142;28;20201;-78
2023/01/04 09:08:06;;;;;;;1.90;1.80;;;5.50;99.90;;;;;;5057573;28;20207;-77
2023/01/04 09:10:33;;;;;;;2.28;2.03;;;5.60;99.90;;;;;;5057449;28;20742;-77
2023/01/04 09:12:59;;;;;;;2.13;1.98;;;5.60;99.90;;;;;;5057290;28;20192;-75
2023/01/04 09:15:28;;;;;;;2.83;2.42;;;5.70;99.90;;;;;;5055856;28;20199;-74
2023/01/04 09:17:55;;;;;;;1.95;1.85;;;5.70;99.90;;;;;;5057775;28;20221;-75
2023/01/04 09:20:21;;;;;;;2.25;2.05;;;5.70;99.90;;;;;;5058835;28;20244;-77
2023/01/04 09:22:48;;;;;;;1.73;1.70;;;5.80;99.90;;;;;;5057114;28;20201;-77
2023/01/04 09:25:15;;;;;;;2.92;2.50;;;5.90;99.90;;;;;;5057454;28;20201;-77
2023/01/04 09:27:41;;;;;;;2.80;2.60;;;6.00;99.90;;;;;;5057001;28;20548;-78
2023/01/04 09:30:10;;;;;;;2.60;2.40;;;5.90;99.90;;;;;;5056628;28;20217;-77
2023/01/04 09:32:38;;;;;;;2.55;2.35;;;5.90;99.90;;;;;;5056936;28;20196;-77
2023/01/04 09:35:05;;;;;;;3.30;2.55;;;6.00;99.90;;;;;;5057559;28;20204;-77
2023/01/04 09:37:32;;;;;;;2.13;2.10;;;5.90;99.90;;;;;;5057680;28;20216;-78
2023/01/04 09:39:58;;;;;;;2.67;2.47;;;5.90;99.90;;;;;;5055817;28;20228;-76
2023/01/04 09:42:30;;;;;;;2.65;2.45;;;5.80;99.90;;;;;;5056685;28;20207;-77
2023/01/04 09:45:04;;;;;;;2.85;2.75;;;5.80;99.90;;;;;;5057086;28;20246;-78
2023/01/04 09:47:39;;;;;;;3.15;2.88;;;5.80;99.90;;;;;;5058170;28;20540;-78
2023/01/04 09:50:12;;;;;;;3.05;2.80;;;5.80;99.90;;;;;;5057532;28;20227;-78
2023/01/04 09:52:51;;;;;;;3.28;2.65;;;5.80;99.90;;;;;;5055665;28;20652;-78
2023/01/04 09:55:23;;;;;;;3.38;2.90;;;5.80;99.90;;;;;;5058255;28;20587;-77
2023/01/04 09:57:53;;;;;;;3.25;2.88;;;5.80;99.90;;;;;;5057262;28;20209;-76
2023/01/04 10:00:25;;;;;;;3.70;2.50;;;5.80;99.90;;;;;;5055064;28;20220;-76
2023/01/04 10:02:58;;;;;;;5.28;3.00;;;5.90;99.90;;;;;;5055604;28;20185;-76
2023/01/04 10:05:28;;;;;;;3.05;2.67;;;5.90;99.90;;;;;;5055312;28;20185;-76
2023/01/04 10:07:55;;;;;;;2.65;2.30;;;5.90;99.90;;;;;;5054863;28;20208;-76
2023/01/04 10:10:35;;;;;;;2.65;2.42;;;5.80;99.90;;;;;;5054837;28;20220;-75
2023/01/04 10:13:13;;;;;;;2.47;2.35;;;5.80;99.90;;;;;;5054866;28;20188;-76
2023/01/04 10:15:46;;;;;;;8.93;2.05;;;5.90;99.90;;;;;;5055533;28;20192;-76
2023/01/04 10:18:25;;;;;;;2.20;2.03;;;5.80;99.90;;;;;;5054708;28;20569;-77
2023/01/04 10:21:01;;;;;;;3.03;2.58;;;5.80;99.90;;;;;;5055321;28;20235;-76
2023/01/04 10:23:46;;;;;;;2.35;2.20;;;5.80;99.90;;;;;;5054683;28;20195;-76
2023/01/04 10:26:14;;;;;;;3.10;2.10;;;5.80;99.90;;;;;;5054130;28;20243;-76
2023/01/04 10:28:59;;;;;;;4.20;3.00;;;5.80;99.90;;;;;;5054554;28;20213;-75
2023/01/04 10:31:31;;;;;;;1.90;1.80;;;5.90;99.90;;;;;;5054422;28;20224;-76
2023/01/04 10:34:06;;;;;;;2.45;2.25;;;5.90;99.90;;;;;;5054527;28;20193;-76
2023/01/04 10:36:33;;;;;;;3.47;2.70;;;5.90;99.90;;;;;;5054186;28;20190;-76
2023/01/04 10:39:02;;;;;;;3.40;2.47;;;6.20;99.90;;;;;;5054017;28;20663;-76
2023/01/04 10:41:35;;;;;;;2.58;2.38;;;6.20;99.90;;;;;;5054270;28;20220;-76
2023/01/04 10:44:12;;;;;;;5.05;3.95;;;6.10;99.90;;;;;;5055187;28;20193;-74
2023/01/04 10:46:46;;;;;;;3.45;3.15;;;6.20;99.90;;;;;;5054487;28;20212;-75
2023/01/04 10:49:18;;;;;;;4.72;3.15;;;6.30;99.90;;;;;;5055380;28;20244;-76
2023/01/04 10:51:50;;;;;;;3.47;3.17;;;6.40;99.90;;;;;;5055902;28;20242;-76
2023/01/04 10:54:25;;;;;;;4.28;3.45;;;6.30;99.90;;;;;;5063626;28;20181;-74
2023/01/04 10:56:58;;;;;;;4.68;3.13;;;6.40;99.90;;;;;;5064784;28;20184;-76
2023/01/04 10:59:35;;;;;;;3.13;2.92;;;6.40;99.90;;;;;;5065765;28;20188;-76
2023/01/04 11:02:07;;;;;;;3.58;3.13;;;6.40;99.90;;;;;;5066956;28;20204;-76
2023/01/04 11:04:40;;;;;;;2.85;2.60;;;6.50;99.90;;;;;;5065548;28;20195;-76
2023/01/04 11:07:13;;;;;;;2.90;2.70;;;6.40;99.90;;;;;;5064641;28;20181;-77
2023/01/04 11:09:45;;;;;;;3.20;2.80;;;6.70;99.90;;;;;;5064987;28;20192;-76
2023/01/04 11:12:15;;;;;;;2.60;2.50;;;6.60;99.90;;;;;;5065258;28;20200;-76
2023/01/04 11:14:43;;;;;;;3.95;3.17;;;6.60;99.90;;;;;;5063462;28;20283;-76
2023/01/04 11:17:11;;;;;;;3.17;2.72;;;6.50;99.90;;;;;;5057960;28;20209;-76
2023/01/04 11:19:40;;;;;;;3.28;3.08;;;6.50;99.90;;;;;;5061102;28;20207;-77
2023/01/04 11:22:14;;;;;;;3.22;2.92;;;6.60;99.90;;;;;;5064499;28;20640;-77
2023/01/04 11:24:44;;;;;;;3.10;2.90;;;6.50;99.90;;;;;;5065027;28;20199;-77
2023/01/04 11:27:16;;;;;;;2.85;2.65;;;6.60;99.90;;;;;;5059266;28;20200;-77
2023/01/04 11:29:49;;;;;;;4.25;2.80;;;6.60;99.90;;;;;;5074647;28;20192;-78
2023/01/04 11:32:20;;;;;;;2.67;2.50;;;6.50;99.90;;;;;;5076849;28;20168;-76
2023/01/04 11:34:51;;;;;;;2.38;2.28;;;6.60;99.90;;;;;;5077852;28;20232;-76
2023/01/04 11:37:27;;;;;;;3.13;2.83;;;6.50;99.90;;;;;;5076888;28;20208;-76
2023/01/04 11:40:12;;;;;;;2.55;2.45;;;6.60;99.90;;;;;;5075817;28;20275;-75
2023/01/04 11:42:39;;;;;;;3.33;3.13;;;6.60;99.90;;;;;;5076540;28;20204;-76
2023/01/04 11:45:16;;;;;;;3.38;3.08;;;6.50;99.90;;;;;;5061100;28;20205;-77
2023/01/04 11:47:49;;;;;;;2.20;2.10;;;6.60;99.90;;;;;;5054130;28;20553;-70
2023/01/04 11:50:39;;;;;;;3.13;2.83;;;6.60;99.90;;;;;;5053729;28;20230;-70
2023/01/04 11:53:27;;;;;;;3.13;2.38;;;6.60;99.90;;;;;;5053975;28;20242;-71
2023/01/04 11:56:25;;;;;;;2.40;2.20;;;6.70;99.90;;;;;;5053498;28;20640;-77
2023/01/04 11:59:22;;;;;;;2.47;2.28;;;6.80;99.90;;;;;;5053129;28;20686;-73
2023/01/04 12:01:50;;;;;;;2.08;1.95;;;6.90;99.90;;;;;;5018936;28;20229;-75
2023/01/04 12:04:21;;;;;;;2.03;1.83;;;6.90;99.90;;;;;;5053628;28;20239;-75
2023/01/04 12:06:52;;;;;;;3.35;3.15;;;7.10;99.90;;;;;;5053470;28;20185;-75
2023/01/04 12:09:20;;;;;;;2.60;1.70;;;7.10;99.90;;;;;;5053417;28;20642;-76
2023/01/04 12:11:50;;;;;;;2.67;2.20;;;7.30;99.90;;;;;;5053877;28;20224;-76
2023/01/04 12:14:25;;;;;;;2.35;1.70;;;7.20;99.90;;;;;;5053372;28;20204;-76
2023/01/04 12:17:02;;;;;;;1.40;1.33;;;7.20;99.90;;;;;;5059578;28;20277;-78
2023/01/04 12:19:30;;;;;;;2.92;1.58;;;7.20;99.90;;;;;;5060480;28;20216;-78
2023/01/04 12:22:00;;;;;;;2.53;1.58;;;7.10;99.90;;;;;;5058889;28;20598;-77
2023/01/04 12:24:30;;;;;;;1.42;1.42;;;7.10;99.90;;;;;;5059143;28;20196;-77
2023/01/04 12:26:57;;;;;;;2.08;1.45;;;7.00;99.90;;;;;;5058798;28;20643;-77
2023/01/04 12:29:43;;;;;;;1.73;1.73;;;7.00;99.90;;;;;;5059980;28;20197;-77
2023/01/04 12:32:42;;;;;;;2.00;1.52;;;7.00;99.90;;;;;;5061848;28;20211;-77
2023/01/04 12:36:02;;;;;;;2.60;1.67;;;7.00;99.90;;;;;;5069860;28;20180;-76
2023/01/04 12:39:17;;;;;;;1.48;1.33;;;7.00;99.90;;;;;;5062772;28;20208;-76
2023/01/04 12:42:22;;;;;;;1.92;1.83;;;7.10;99.90;;;;;;5056070;28;20228;-76
2023/01/04 12:45:09;;;;;;;1.95;1.63;;;7.10;99.90;;;;;;5056471;28;20196;-76
2023/01/04 12:50:30;;;;;;;1.63;1.63;;;7.10;99.90;;;;;;5057192;28;20324;-77
2023/01/04 12:52:59;;;;;;;1.98;1.85;;;7.20;99.90;;;;;;5057635;28;20219;-78
2023/01/04 12:55:44;;;;;;;2.90;2.10;;;7.20;99.90;;;;;;5057343;28;20204;-77
2023/01/04 12:58:41;;;;;;;1.70;1.60;;;7.10;99.90;;;;;;5056926;28;20687;-77
2023/01/04 13:01:22;;;;;;;1.77;1.67;;;7.20;99.90;;;;;;5049098;28;20294;-78
2023/01/04 13:03:50;;;;;;;1.52;1.42;;;7.20;99.90;;;;;;5058438;28;20200;-78
2023/01/04 13:06:20;;;;;;;1.80;1.70;;;7.30;99.90;;;;;;5058562;28;20203;-77
2023/01/04 13:08:51;;;;;;;2.17;1.63;;;7.30;99.90;;;;;;5057310;28;20185;-76
2023/01/04 13:11:33;;;;;;;1.30;1.25;;;7.30;99.90;;;;;;5057447;28;20224;-78
2023/01/04 13:14:06;;;;;;;1.48;1.40;;;7.30;99.90;;;;;;5057153;28;20185;-78
2023/01/04 13:16:44;;;;;;;1.60;1.50;;;7.40;99.90;;;;;;5057984;28;20191;-77
2023/01/04 13:19:17;;;;;;;1.73;1.30;;;7.40;99.90;;;;;;5058007;28;20204;-79
2023/01/04 13:21:45;;;;;;;1.45;1.42;;;7.40;99.90;;;;;;5058693;28;20238;-78
2023/01/04 13:24:21;;;;;;;21.15;2.20;;;7.40;99.90;;;;;;5060331;28;20239;-77
2023/01/04 13:26:48;;;;;;;4.53;3.65;;;7.40;99.90;;;;;;5061931;28;20185;-79
2023/01/04 13:29:18;;;;;;;1.90;1.80;;;7.50;99.90;;;;;;5057547;28;20204;-78
2023/01/04 13:31:56;;;;;;;2.38;1.90;;;7.50;99.90;;;;;;5058941;28;20231;-78
2023/01/04 13:34:26;;;;;;;2.28;1.55;;;7.60;99.90;;;;;;5056508;28;20200;-77
2023/01/04 13:37:17;;;;;;;2.03;1.70;;;7.70;99.90;;;;;;5056050;28;20205;-77
2023/01/04 13:39:45;;;;;;;3.25;1.25;;;7.70;99.90;;;;;;5051909;28;20305;-77
2023/01/04 13:42:20;;;;;;;1.00;1.00;;;7.70;99.90;;;;;;5056518;28;20197;-77
2023/01/04 13:45:27;;;;;;;0.90;0.90;;;7.70;99.90;;;;;;5057349;28;20184;-78
2023/01/04 13:47:59;;;;;;;1.20;1.10;;;7.70;99.90;;;;;;5008070;28;20678;-77
2023/01/04 13:50:30;;;;;;;1.00;1.00;;;7.80;99.90;;;;;;5055652;28;20236;-77
2023/01/04 13:52:57;;;;;;;2.00;1.27;;;7.70;99.90;;;;;;5056093;28;20189;-76
2023/01/04 13:55:26;;;;;;;1.90;1.45;;;7.70;99.90;;;;;;5055962;28;20203;-77
2023/01/04 13:57:55;;;;;;;4.93;1.13;;;7.70;99.90;;;;;;5056734;28;20358;-76
2023/01/04 14:00:22;;;;;;;1.52;1.42;;;7.80;99.90;;;;;;5054948;28;20707;-77
2023/01/04 14:03:06;;;;;;;0.90;0.90;;;7.80;99.90;;;;;;5055356;28;20185;-76
2023/01/04 14:05:33;;;;;;;1.15;1.05;;;7.80;99.90;;;;;;5055275;28;20196;-76
2023/01/04 14:08:00;;;;;;;1.77;1.67;;;8.00;99.90;;;;;;5055610;28;20280;-77
2023/01/04 14:10:27;;;;;;;2.08;1.20;;;8.10;99.90;;;;;;5054995;28;20224;-76
2023/01/04 14:12:54;;;;;;;1.40;1.30;;;8.10;99.90;;;;;;5054970;28;20200;-77
2023/01/04 14:15:22;;;;;;;1.20;1.20;;;7.90;99.90;;;;;;5055511;28;20605;-77
2023/01/04 14:17:50;;;;;;;1.42;1.40;;;7.90;99.90;;;;;;5055291;28;20201;-76
2023/01/04 14:20:36;;;;;;;1.40;1.40;;;7.80;99.90;;;;;;5056369;28;20235;-79
2023/01/04 14:23:03;;;;;;;1.00;1.00;;;7.80;99.90;;;;;;5058111;28;20184;-79
2023/01/04 14:25:43;;;;;;;1.70;1.60;;;7.70;99.90;;;;;;5068835;28;20279;-80
2023/01/04 14:28:45;;;;;;;1.20;1.08;;;7.90;99.90;;;;;;5073273;28;20185;-78
2023/01/04 14:31:18;;;;;;;1.10;1.10;;;7.90;99.90;;;;;;5070345;28;20228;-79
2023/01/04 14:33:48;;;;;;;1.05;1.05;;;7.90;99.90;;;;;;5057221;28;20228;-77
2023/01/04 14:36:21;;;;;;;1.00;0.93;;;7.80;99.90;;;;;;5055699;28;20220;-77
2023/01/04 14:38:59;;;;;;;1.17;1.13;;;7.80;99.90;;;;;;5055381;28;20304;-77
2023/01/04 14:41:29;;;;;;;1.40;1.30;;;7.70;99.90;;;;;;5054992;28;20228;-76
2023/01/04 14:44:08;;;;;;;0.80;0.80;;;7.80;99.90;;;;;;5056296;28;20181;-78
2023/01/04 14:46:35;;;;;;;1.13;1.13;;;7.70;99.90;;;;;;5055484;28;20238;-76
2023/01/04 14:49:02;;;;;;;1.05;1.05;;;7.70;99.90;;;;;;5055862;28;20212;-77
2023/01/04 14:51:36;;;;;;;1.30;1.20;;;7.70;99.90;;;;;;5054780;28;20279;-76
2023/01/04 14:54:03;;;;;;;1.88;1.33;;;7.80;99.90;;;;;;5055258;28;20192;-80
2023/01/04 14:56:30;;;;;;;0.90;0.90;;;7.70;99.90;;;;;;5058525;28;20208;-80
2023/01/04 14:58:57;;;;;;;1.33;1.00;;;7.60;99.90;;;;;;5057342;28;20614;-79
2023/01/04 15:01:23;;;;;;;0.93;0.93;;;7.60;99.90;;;;;;5056728;28;20227;-79
2023/01/04 15:03:50;;;;;;;0.95;0.95;;;7.50;99.90;;;;;;5056722;28;20211;-78
2023/01/04 15:06:17;;;;;;;1.08;1.00;;;7.50;99.90;;;;;;5057164;28;20207;-78
2023/01/04 15:08:45;;;;;;;1.20;1.20;;;7.50;99.90;;;;;;5056269;28;20200;-79
2023/01/04 15:11:12;;;;;;;0.75;0.75;;;7.60;99.90;;;;;;5055844;28;20220;-78
2023/01/04 15:13:39;;;;;;;1.08;0.98;;;7.60;99.90;;;;;;5056525;28;20212;-79
2023/01/04 15:16:07;;;;;;;1.17;1.08;;;7.50;99.90;;;;;;5057704;28;20234;-78
2023/01/04 15:18:34;;;;;;;1.00;1.00;;;7.50;99.90;;;;;;5057226;28;20638;-79
2023/01/04 15:21:02;;;;;;;0.60;0.60;;;7.60;99.90;;;;;;5056334;28;20247;-79
2023/01/04 15:23:29;;;;;;;1.08;0.88;;;7.60;99.90;;;;;;5057755;28;20201;-79
2023/01/04 15:26:00;;;;;;;0.70;0.70;;;7.50;99.90;;;;;;5057454;28;20696;-79
2023/01/04 15:28:27;;;;;;;1.02;0.82;;;7.50;99.90;;;;;;5057168;28;20188;-79
2023/01/04 15:30:54;;;;;;;0.70;0.70;;;7.60;99.90;;;;;;5057059;28;20224;-79
2023/01/04 15:33:20;;;;;;;0.90;0.90;;;7.50;99.90;;;;;;5056839;28;20205;-78
2023/01/04 15:35:47;;;;;;;0.57;0.57;;;7.50;99.90;;;;;;5056185;28;20228;-78
2023/01/04 15:38:15;;;;;;;0.82;0.82;;;7.60;99.90;;;;;;5056389;28;20220;-78
2023/01/04 15:40:42;;;;;;;0.93;0.82;;;7.60;99.90;;;;;;5053459;28;20311;-77
2023/01/04 15:43:09;;;;;;;0.70;0.70;;;7.70;99.90;;;;;;5058206;28;20205;-78
2023/01/04 15:45:38;;;;;;;0.95;0.95;;;7.60;99.90;;;;;;5054370;28;20251;-78
2023/01/04 15:48:06;;;;;;;0.70;0.70;;;7.60;99.90;;;;;;5056304;28;20204;-79
2023/01/04 15:50:35;;;;;;;0.50;0.50;;;7.60;99.90;;;;;;5056954;28;20243;-78
2023/01/04 15:53:02;;;;;;;0.70;0.70;;;7.60;99.90;;;;;;5060315;28;20196;-80
2023/01/04 15:55:29;;;;;;;1.00;1.00;;;7.70;99.90;;;;;;5058469;28;20201;-78
2023/01/04 15:57:56;;;;;;;0.60;0.60;;;7.70;99.90;;;;;;5059615;28;20235;-78
2023/01/04 16:00:24;;;;;;;1.00;1.00;;;7.60;99.90;;;;;;5060615;28;20220;-79
2023/01/04 16:02:51;;;;;;;1.90;1.80;;;7.70;99.90;;;;;;5059423;28;20315;-78
2023/01/04 16:05:19;;;;;;;0.60;0.60;;;7.70;99.90;;;;;;5060169;28;20201;-79
2023/01/04 16:07:46;;;;;;;3.20;1.00;;;7.90;99.90;;;;;;5060621;28;20192;-78
2023/01/04 16:10:13;;;;;;;1.27;1.17;;;7.80;99.90;;;;;;5060570;28;20617;-79
2023/01/04 16:12:43;;;;;;;0.88;0.88;;;7.80;99.90;;;;;;5059971;28;20212;-79
2023/01/04 16:15:12;;;;;;;1.17;1.05;;;7.80;99.90;;;;;;5059934;28;20223;-78
2023/01/04 16:17:41;;;;;;;0.73;0.73;;;7.80;99.90;;;;;;5060461;28;20603;-78
2023/01/04 16:20:09;;;;;;;0.50;0.50;;;7.80;99.90;;;;;;5058999;28;20595;-79
2023/01/04 16:22:36;;;;;;;0.50;0.50;;;7.70;99.90;;;;;;5060515;28;20208;-77
2023/01/04 16:25:04;;;;;;;0.45;0.45;;;7.80;99.90;;;;;;5063254;28;20235;-76
2023/01/04 16:27:32;;;;;;;0.60;0.60;;;7.70;99.90;;;;;;5060813;28;20291;-76
2023/01/04 16:29:59;;;;;;;0.60;0.60;;;7.70;99.90;;;;;;5060173;28;20244;-77
2023/01/04 16:32:25;;;;;;;0.70;0.70;;;7.60;99.90;;;;;;5059784;28;20196;-77
2023/01/04 16:34:54;;;;;;;0.80;0.80;;;7.70;99.90;;;;;;5061022;28;20204;-77
2023/01/04 16:37:20;;;;;;;0.55;0.55;;;7.70;99.90;;;;;;5061228;28;20671;-77
2023/01/04 16:39:49;;;;;;;0.65;0.65;;;7.90;99.90;;;;;;5058210;28;20220;-76
2023/01/04 16:42:16;;;;;;;2.55;2.35;;;7.80;99.90;;;;;;5058741;28;20229;-76
2023/01/04 16:44:42;;;;;;;2.58;2.40;;;7.70;99.90;;;;;;5061391;28;20204;-76
2023/01/04 16:47:09;;;;;;;1.17;1.17;;;7.60;99.90;;;;;;5062261;28;20205;-76
2023/01/04 16:49:36;;;;;;;2.70;1.73;;;7.50;99.90;;;;;;5065304;28;20200;-76
2023/01/04 16:52:09;;;;;;;0.73;0.73;;;7.60;99.90;;;;;;5081270;28;20180;-75
2023/01/04 16:54:36;;;;;;;0.60;0.60;;;7.50;99.90;;;;;;5081510;28;20196;-75
2023/01/04 16:57:03;;;;;;;1.00;1.00;;;7.70;99.90;;;;;;5081265;28;20258;-75
2023/01/04 16:59:30;;;;;;;1.95;0.85;;;7.60;99.90;;;;;;5080226;28;20203;-75
2023/01/04 17:01:57;;;;;;;0.60;0.60;;;7.70;99.90;;;;;;5065463;28;20197;-76
2023/01/04 17:04:24;;;;;;;0.80;0.80;;;7.60;99.90;;;;;;5064805;28;20207;-76
2023/01/04 17:06:53;;;;;;;3.40;0.80;;;7.60;99.90;;;;;;5076806;28;20177;-75
2023/01/04 17:09:21;;;;;;;0.70;0.70;;;7.60;99.90;;;;;;5073754;28;20220;-75
2023/01/04 17:11:56;;;;;;;0.90;0.90;;;7.60;99.90;;;;;;5064396;28;20221;-77
2023/01/04 17:14:24;;;;;;;4.90;2.88;;;7.50;99.90;;;;;;5063990;28;20543;-75
2023/01/04 17:16:51;;;;;;;1.85;1.10;;;7.50;99.90;;;;;;5069937;28;20573;-74
2023/01/04 17:19:19;;;;;;;0.70;0.70;;;7.60;99.90;;;;;;5073466;28;20635;-75
2023/01/04 17:21:46;;;;;;;1.45;1.05;;;7.70;99.90;;;;;;5070655;28;20602;-74
2023/01/04 17:24:14;;;;;;;0.93;0.93;;;7.60;99.90;;;;;;5072464;28;20200;-76
2023/01/04 17:26:42;;;;;;;0.50;0.50;;;7.60;99.90;;;;;;5075712;28;20291;-76
2023/01/04 17:29:09;;;;;;;0.73;0.73;;;7.60;99.90;;;;;;5073978;28;20193;-75
2023/01/04 17:31:39;;;;;;;0.70;0.70;;;7.60;99.90;;;;;;5077513;28;20219;-76
2023/01/04 17:34:06;;;;;;;0.80;0.80;;;7.60;99.90;;;;;;5075846;28;20227;-76
2023/01/04 17:36:33;;;;;;;2.15;1.42;;;7.60;99.90;;;;;;5069713;28;20192;-77
2023/01/04 17:39:01;;;;;;;0.60;0.60;;;7.60;99.90;;;;;;5065045;28;20208;-77
2023/01/04 17:41:29;;;;;;;0.95;0.55;;;7.60;99.90;;;;;;5067257;28;20229;-77
2023/01/04 17:44:00;;;;;;;0.70;0.70;;;7.60;99.90;;;;;;5066883;28;20227;-76
2023/01/04 17:46:30;;;;;;;0.52;0.52;;;7.70;99.90;;;;;;5066656;28;20239;-77
2023/01/04 17:48:57;;;;;;;0.60;0.60;;;7.70;99.90;;;;;;5063736;28;20204;-77
2023/01/04 17:51:25;;;;;;;0.60;0.60;;;7.60;99.90;;;;;;5065648;28;20228;-78
2023/01/04 17:53:57;;;;;;;0.85;0.60;;;7.70;99.90;;;;;;5057906;28;20208;-73
2023/01/04 17:56:24;;;;;;;0.90;0.60;;;7.70;99.90;;;;;;5060808;28;20205;-75
2023/01/04 17:58:52;;;;;;;0.40;0.40;;;7.90;99.90;;;;;;5060248;28;20204;-75
2023/01/04 18:01:22;;;;;;;0.50;0.50;;;7.90;99.90;;;;;;5060586;28;20245;-75
2023/01/04 18:03:50;;;;;;;0.93;0.93;;;7.80;99.90;;;;;;5061208;28;20193;-76
2023/01/04 18:06:19;;;;;;;0.70;0.70;;;7.80;99.90;;;;;;5062571;28;20209;-75
2023/01/04 18:08:47;;;;;;;0.90;0.90;;;7.70;99.90;;;;;;5062384;28;20209;-76
2023/01/04 18:11:14;;;;;;;0.60;0.60;;;7.70;99.90;;;;;;5063929;28;20255;-74
2023/01/04 18:13:44;;;;;;;0.77;0.77;;;7.70;99.90;;;;;;5059647;28;20205;-75
2023/01/04 18:16:15;;;;;;;0.65;0.65;;;7.70;99.90;;;;;;5061444;28;20207;-75
2023/01/04 18:18:43;;;;;;;2.17;1.13;;;7.70;99.90;;;;;;5061578;28;20205;-74
2023/01/04 18:21:12;;;;;;;1.67;1.58;;;7.70;99.90;;;;;;5062663;28;20251;-76
2023/01/04 18:23:39;;;;;;;1.77;1.10;;;7.70;99.90;;;;;;5062372;28;20292;-74
2023/01/04 18:26:07;;;;;;;3.75;1.70;;;7.80;99.90;;;;;;5063645;28;20201;-75
2023/01/04 18:28:35;;;;;;;2.05;1.55;;;7.70;99.90;;;;;;5062610;28;20228;-74
2023/01/04 18:31:08;;;;;;;1.10;1.10;;;7.60;99.90;;;;;;5062526;28;20240;-75
2023/01/04 18:33:35;;;;;;;0.95;0.95;;;7.70;99.90;;;;;;5063435;28;20185;-74
2023/01/04 18:36:06;;;;;;;2.25;1.73;;;7.70;99.90;;;;;;5062978;28;20203;-74
2023/01/04 18:38:35;;;;;;;2.30;1.92;;;7.80;99.90;;;;;;5062727;28;20264;-75
2023/01/04 18:41:05;;;;;;;1.42;0.98;;;7.70;99.90;;;;;;5062727;28;20227;-75
2023/01/04 18:43:34;;;;;;;0.88;0.88;;;7.70;99.90;;;;;;5061949;28;20173;-75
2023/01/04 18:46:01;;;;;;;1.63;1.10;;;7.80;99.90;;;;;;5057416;28;20204;-76
2023/01/04 18:48:28;;;;;;;1.35;1.13;;;7.80;99.90;;;;;;5056686;28;20211;-76
2023/01/04 18:51:00;;;;;;;1.33;0.82;;;7.80;99.90;;;;;;5055591;28;20772;-77
2023/01/04 18:53:29;;;;;;;0.75;0.75;;;7.80;99.90;;;;;;5054178;28;20204;-77
2023/01/04 18:55:56;;;;;;;1.05;1.02;;;7.80;99.90;;;;;;5054322;28;20207;-77
2023/01/04 18:58:23;;;;;;;2.28;1.50;;;7.80;99.90;;;;;;5055086;28;20203;-76
2023/01/04 19:00:49;;;;;;;0.65;0.65;;;7.90;99.90;;;;;;5054432;28;20232;-76
2023/01/04 19:03:16;;;;;;;0.60;0.60;;;7.90;99.90;;;;;;5055397;28;20196;-76
2023/01/04 19:05:43;;;;;;;0.60;0.60;;;7.90;99.90;;;;;;5054802;28;20211;-76
2023/01/04 19:08:09;;;;;;;0.73;0.73;;;8.00;99.90;;;;;;5054315;28;20664;-78
2023/01/04 19:10:37;;;;;;;1.45;0.60;;;8.00;99.90;;;;;;5054121;28;20627;-76
2023/01/04 19:13:04;;;;;;;0.63;0.63;;;8.00;99.90;;;;;;5053985;28;20211;-77
2023/01/04 19:15:31;;;;;;;0.73;0.73;;;8.00;99.90;;;;;;5053887;28;20205;-77
2023/01/04 19:17:57;;;;;;;0.60;0.60;;;8.00;99.90;;;;;;5055179;28;20208;-78
2023/01/04 19:20:24;;;;;;;0.63;0.63;;;8.00;99.90;;;;;;5054383;28;20224;-77
2023/01/04 19:22:51;;;;;;;0.60;0.60;;;8.00;99.90;;;;;;5055957;28;20227;-77
2023/01/04 19:25:18;;;;;;;0.82;0.82;;;8.10;99.90;;;;;;5054345;28;20213;-77
2023/01/04 19:27:46;;;;;;;0.77;0.77;;;8.00;99.90;;;;;;5055159;28;20227;-77
2023/01/04 19:30:14;;;;;;;1.15;1.05;;;8.10;99.90;;;;;;5054250;28;20243;-77
2023/01/04 19:32:41;;;;;;;0.80;0.80;;;8.00;99.90;;;;;;5054347;28;20200;-77
2023/01/04 19:35:08;;;;;;;1.00;1.00;;;8.00;99.90;;;;;;5054870;28;20211;-76
2023/01/04 19:37:34;;;;;;;0.70;0.70;;;8.00;99.90;;;;;;5054535;28;20204;-75
2023/01/04 19:40:01;;;;;;;1.05;1.02;;;8.20;99.90;;;;;;5054691;28;20220;-76
2023/01/04 19:42:28;;;;;;;1.08;1.08;;;8.20;99.90;;;;;;5053864;28;20208;-76
2023/01/04 19:44:56;;;;;;;0.70;0.70;;;8.10;99.90;;;;;;5053784;28;20212;-75
2023/01/04 19:47:22;;;;;;;1.42;0.88;;;8.10;99.90;;;;;;5053715;28;20205;-75
2023/01/04 19:49:49;;;;;;;1.88;1.73;;;8.00;99.90;;;;;;5054276;28;20197;-75
2023/01/04 19:52:16;;;;;;;1.92;1.70;;;8.10;99.90;;;;;;5053693;28;20274;-75
2023/01/04 19:54:42;;;;;;;0.82;0.82;;;8.10;99.90;;;;;;5053182;28;20254;-76
2023/01/04 19:57:09;;;;;;;1.05;0.88;;;8.10;99.90;;;;;;5053365;28;20606;-75
2023/01/04 19:59:36;;;;;;;1.00;1.00;;;8.00;99.90;;;;;;5053337;28;20200;-76
2023/01/04 20:02:05;;;;;;;0.85;0.85;;;8.00;99.90;;;;;;5053589;28;20251;-76
2023/01/04 20:04:32;;;;;;;0.75;0.75;;;8.00;99.90;;;;;;5054147;28;20212;-76
2023/01/04 20:06:59;;;;;;;2.63;0.88;;;7.90;99.90;;;;;;5053263;28;20228;-75
2023/01/04 20:09:26;;;;;;;1.58;1.48;;;7.90;99.90;;;;;;5053235;28;20209;-76
2023/01/04 20:11:53;;;;;;;0.65;0.65;;;7.90;99.90;;;;;;5053080;28;20696;-75
2023/01/04 20:14:20;;;;;;;0.70;0.70;;;8.10;99.90;;;;;;5053711;28;20227;-75
2023/01/04 20:16:47;;;;;;;0.95;0.95;;;8.00;99.90;;;;;;5053278;28;20201;-75
2023/01/04 20:19:15;;;;;;;0.80;0.80;;;7.90;99.90;;;;;;5053481;28;20201;-75
2023/01/04 20:21:42;;;;;;;0.90;0.68;;;8.20;99.90;;;;;;5052977;28;20707;-75
2023/01/04 20:24:08;;;;;;;0.70;0.70;;;8.10;99.90;;;;;;5053405;28;20270;-77
2023/01/04 20:26:36;;;;;;;0.50;0.50;;;8.00;99.90;;;;;;5052977;28;20204;-75
2023/01/04 20:29:03;;;;;;;0.60;0.60;;;8.00;99.90;;;;;;5053029;28;20205;-75
2023/01/04 20:31:31;;;;;;;0.50;0.50;;;8.00;99.90;;;;;;5053048;28;20252;-75
2023/01/04 20:33:58;;;;;;;0.60;0.60;;;8.00;99.90;;;;;;5053145;28;20204;-75
2023/01/04 20:36:28;;;;;;;1.08;0.75;;;8.00;99.90;;;;;;5053230;28;20200;-75
2023/01/04 20:38:57;;;;;;;0.50;0.50;;;8.00;99.90;;;;;;5056857;28;20494;-75
2023/01/04 20:41:27;;;;;;;0.60;0.60;;;8.00;99.90;;;;;;5056823;28;20259;-76
2023/01/04 20:43:53;;;;;;;0.60;0.60;;;8.00;99.90;;;;;;5059358;28;20212;-76
2023/01/04 20:46:22;;;;;;;0.60;0.60;;;8.20;99.90;;;;;;5057446;28;20199;-75
2023/01/04 20:48:49;;;;;;;0.50;0.50;;;8.10;99.90;;;;;;5056696;28;20228;-75
2023/01/04 20:51:18;;;;;;;0.60;0.60;;;8.00;99.90;;;;;;5056892;28;20229;-74
2023/01/04 20:53:47;;;;;;;0.68;0.68;;;8.00;99.90;;;;;;5057443;28;20204;-77
2023/01/04 20:56:15;;;;;;;0.70;0.70;;;7.90;99.90;;;;;;5057119;28;20693;-76
2023/01/04 20:58:41;;;;;;;0.60;0.60;;;7.90;99.90;;;;;;5056264;28;20625;-77
2023/01/04 21:01:08;;;;;;;0.60;0.60;;;8.00;99.90;;;;;;5056755;28;20231;-75
2023/01/04 21:03:36;;;;;;;0.55;0.50;;;8.00;99.90;;;;;;5057056;28;20568;-77
2023/01/04 21:06:05;;;;;;;0.73;0.73;;;7.90;99.90;;;;;;5056639;28;20209;-76
2023/01/04 21:08:32;;;;;;;0.70;0.70;;;7.80;99.90;;;;;;5056247;28;20687;-76
2023/01/04 21:11:00;;;;;;;0.40;0.40;;;7.80;99.90;;;;;;5056371;28;20344;-77
2023/01/04 21:15:55;;;;;;;0.50;0.50;;;7.80;99.90;;;;;;5077343;22;20225;-77
2023/01/04 21:18:22;;;;;;;0.50;0.50;;;7.80;99.90;;;;;;5056851;28;20213;-77
2023/01/04 21:20:49;;;;;;;0.60;0.60;;;7.90;99.90;;;;;;5057175;28;20243;-77
2023/01/04 21:23:17;;;;;;;0.60;0.60;;;7.80;99.90;;;;;;5056999;28;20200;-77
2023/01/04 21:25:44;;;;;;;0.60;0.60;;;7.80;99.90;;;;;;5056940;28;20228;-77